| time (UTC) | temp F | wind direction | speed MPH | gust MPH | rain 1hr in | rain 24hr in | rain mn in | humidity % | barometer mb |
| 20260903205631 | 88 | 261 | 1.0 | 7.0 | 0.00 | 0.09 | 0.09 | 68 | 1014.5 |
| 20260903205137 | 88 | 312 | 1.0 | 7.0 | 0.00 | 0.09 | 0.09 | 68 | 1014.5 |
| 20260903204624 | 88 | 338 | 2.0 | 7.0 | 0.00 | 0.09 | 0.09 | 68 | 1014.5 |
| 20260903204114 | 87 | 297 | 3.0 | 7.0 | 0.00 | 0.09 | 0.09 | 69 | 1014.6 |
| 20260903203622 | 87 | 312 | 1.0 | 7.0 | 0.00 | 0.09 | 0.09 | 69 | 1014.8 |
| 20260903203132 | 87 | 307 | 3.0 | 7.0 | 0.00 | 0.09 | 0.09 | 69 | 1015.0 |
| 20260903202622 | 87 | 317 | 2.0 | 7.0 | 0.00 | 0.09 | 0.09 | 69 | 1015.0 |
| 20260903202149 | 87 | 352 | 0.0 | 9.0 | 0.00 | 0.09 | 0.09 | 69 | 1015.0 |
| 20260903201618 | 87 | 328 | 4.0 | 9.0 | 0.00 | 0.09 | 0.09 | 68 | 1015.1 |
| 20260903201127 | 87 | 261 | 1.0 | 9.0 | 0.00 | 0.09 | 0.09 | 69 | 1015.3 |
| 20260903200614 | 86 | 307 | 2.0 | 4.0 | 0.00 | 0.09 | 0.09 | 71 | 1015.2 |
| 20260903200123 | 86 | 243 | 2.0 | 5.0 | 0.00 | 0.09 | 0.09 | 72 | 1015.3 |
| 20260903195651 | 86 | 297 | 1.0 | 6.0 | 0.00 | 0.09 | 0.09 | 71 | 1015.2 |
| 20260903195119 | 86 | 266 | 1.0 | 6.0 | 0.00 | 0.09 | 0.09 | 71 | 1015.3 |
| 20260903194627 | 86 | 286 | 3.0 | 5.0 | 0.00 | 0.09 | 0.09 | 70 | 1015.4 |
| 20260903194117 | 85 | 282 | 2.0 | 8.0 | 0.00 | 0.09 | 0.09 | 71 | 1015.6 |
| 20260903193626 | 85 | 335 | 2.0 | 8.0 | 0.00 | 0.09 | 0.09 | 73 | 1015.6 |
| 20260903193151 | 85 | 299 | 1.0 | 9.0 | 0.00 | 0.09 | 0.09 | 71 | 1015.7 |
| 20260903192620 | 85 | 243 | 3.0 | 9.0 | 0.00 | 0.09 | 0.09 | 70 | 1015.7 |
| 20260903192128 | 84 | 307 | 2.0 | 8.0 | 0.00 | 0.09 | 0.09 | 72 | 1015.8 |
| 20260903191638 | 83 | 308 | 3.0 | 8.0 | 0.00 | 0.09 | 0.09 | 73 | 1016.0 |
| 20260903191145 | 83 | 264 | 2.0 | 8.0 | 0.00 | 0.09 | 0.09 | 73 | 1016.0 |
| 20260903190614 | 83 | 286 | 4.0 | 8.0 | 0.00 | 0.09 | 0.09 | 73 | 1016.0 |
| 20260903190124 | 84 | 344 | 3.0 | 8.0 | 0.00 | 0.09 | 0.09 | 73 | 1016.2 |
| 20260903185653 | 84 | 301 | 3.0 | 8.0 | 0.00 | 0.09 | 0.09 | 73 | 1016.2 |
| 20260903185121 | 84 | 307 | 1.0 | 8.0 | 0.00 | 0.09 | 0.09 | 73 | 1016.2 |
| 20260903184630 | 84 | 18 | 2.0 | 12.0 | 0.00 | 0.09 | 0.09 | 73 | 1016.3 |
| 20260903184120 | 84 | 300 | 3.0 | 12.0 | 0.00 | 0.09 | 0.09 | 72 | 1016.2 |
| 20260903183629 | 84 | 311 | 3.0 | 8.0 | 0.00 | 0.09 | 0.09 | 74 | 1016.2 |
| 20260903183139 | 84 | 274 | 5.0 | 9.0 | 0.00 | 0.09 | 0.09 | 73 | 1016.3 |
| 20260903182628 | 84 | 345 | 3.0 | 9.0 | 0.00 | 0.09 | 0.09 | 73 | 1016.2 |
| 20260903182118 | 84 | 343 | 2.0 | 9.0 | 0.00 | 0.09 | 0.09 | 75 | 1016.2 |
| 20260903181621 | 83 | 280 | 4.0 | 9.0 | 0.00 | 0.09 | 0.09 | 77 | 1016.3 |
| 20260903181130 | 82 | 297 | 4.0 | 9.0 | 0.00 | 0.09 | 0.09 | 77 | 1016.4 |
| 20260903180619 | 82 | 32 | 5.0 | 8.0 | 0.00 | 0.09 | 0.09 | 76 | 1016.3 |
| 20260903180129 | 82 | 299 | 2.0 | 6.0 | 0.00 | 0.09 | 0.09 | 77 | 1016.5 |
| 20260903175616 | 82 | 315 | 3.0 | 6.0 | 0.00 | 0.41 | 0.09 | 79 | 1016.5 |
| 20260903175126 | 81 | 165 | 2.0 | 8.0 | 0.00 | 0.41 | 0.09 | 79 | 1016.7 |
| 20260903174615 | 80 | 165 | 3.0 | 11.0 | 0.00 | 0.41 | 0.09 | 80 | 1016.7 |
| 20260903174125 | 80 | 316 | 4.0 | 11.0 | 0.00 | 0.41 | 0.09 | 80 | 1016.6 |
| 20260903173614 | 80 | 272 | 4.0 | 9.0 | 0.00 | 0.41 | 0.09 | 83 | 1016.8 |
| 20260903173123 | 80 | 165 | 1.0 | 9.0 | 0.00 | 0.41 | 0.09 | 87 | 1016.9 |
| 20260903172633 | 79 | 165 | 2.0 | 11.0 | 0.01 | 0.41 | 0.09 | 88 | 1016.9 |
| 20260903172141 | 78 | 165 | 1.0 | 11.0 | 0.01 | 0.41 | 0.09 | 89 | 1016.9 |
| 20260903171629 | 78 | 308 | 3.0 | 7.0 | 0.01 | 0.41 | 0.09 | 89 | 1017.0 |
| 20260903171138 | 77 | 323 | 2.0 | 10.0 | 0.02 | 0.41 | 0.09 | 90 | 1017.2 |
| 20260903170625 | 77 | 315 | 2.0 | 10.0 | 0.03 | 0.41 | 0.09 | 90 | 1017.2 |
| 20260903170114 | 77 | 327 | 4.0 | 10.0 | 0.04 | 0.41 | 0.09 | 91 | 1017.3 |
| 20260903165644 | 77 | 302 | 4.0 | 10.0 | 0.06 | 0.41 | 0.09 | 92 | 1017.2 |
| 20260903165129 | 77 | 284 | 3.0 | 10.0 | 0.07 | 0.41 | 0.09 | 92 | 1017.1 |
| 20260903164616 | 77 | 311 | 2.0 | 7.0 | 0.07 | 0.41 | 0.09 | 93 | 1017.2 |
| 20260903164126 | 77 | 323 | 1.0 | 5.0 | 0.07 | 0.41 | 0.09 | 94 | 1017.3 |
| 20260903163615 | 76 | 165 | 1.0 | 3.0 | 0.07 | 0.41 | 0.09 | 92 | 1017.3 |
| 20260903163125 | 76 | 270 | 1.0 | 4.0 | 0.08 | 0.41 | 0.09 | 93 | 1017.2 |
| 20260903162615 | 76 | 254 | 1.0 | 4.0 | 0.08 | 0.40 | 0.08 | 93 | 1016.9 |
| 20260903162123 | 76 | 233 | 0.0 | 0.0 | 0.08 | 0.40 | 0.08 | 93 | 1017.2 |
| 20260903161633 | 75 | 322 | 0.0 | 0.0 | 0.07 | 0.39 | 0.07 | 92 | 1017.5 |
| 20260903161122 | 75 | 192 | 0.0 | 2.0 | 0.07 | 0.39 | 0.07 | 92 | 1017.8 |
| 20260903160631 | 75 | 183 | 0.0 | 3.0 | 0.06 | 0.38 | 0.06 | 91 | 1018.0 |
| 20260903160117 | 75 | 165 | 2.0 | 3.0 | 0.04 | 0.36 | 0.04 | 91 | 1018.3 |
| 20260903155646 | 75 | 165 | 0.0 | 3.0 | 0.03 | 0.35 | 0.03 | 91 | 1017.9 |
| 20260903155113 | 76 | 165 | 0.0 | 5.0 | 0.02 | 0.34 | 0.02 | 90 | 1018.5 |
| 20260903154643 | 76 | 165 | 0.0 | 8.0 | 0.02 | 0.34 | 0.02 | 90 | 1019.1 |
| 20260903154151 | 76 | 165 | 2.0 | 9.0 | 0.02 | 0.34 | 0.02 | 89 | 1019.2 |
| 20260903153619 | 77 | 9 | 3.0 | 9.0 | 0.02 | 0.34 | 0.02 | 89 | 1019.5 |
| 20260903153128 | 77 | 288 | 2.0 | 6.0 | 0.01 | 0.33 | 0.01 | 88 | 1019.9 |
| 20260903152617 | 78 | 247 | 2.0 | 6.0 | 0.00 | 0.32 | 0.00 | 87 | 1020.0 |
| 20260903152122 | 78 | 318 | 1.0 | 5.0 | 0.00 | 0.32 | 0.00 | 87 | 1019.1 |
| 20260903151651 | 78 | 312 | 2.0 | 8.0 | 0.00 | 0.32 | 0.00 | 85 | 1018.1 |
| 20260903151139 | 79 | 165 | 2.0 | 9.0 | 0.00 | 0.32 | 0.00 | 85 | 1018.2 |
| 20260903150627 | 79 | 165 | 3.0 | 9.0 | 0.00 | 0.32 | 0.00 | 84 | 1018.3 |
| 20260903150137 | 79 | 165 | 3.0 | 10.0 | 0.00 | 0.32 | 0.00 | 85 | 1018.4 |
| 20260903145626 | 79 | 165 | 5.0 | 10.0 | 0.00 | 0.32 | 0.00 | 85 | 1018.3 |
| 20260903145114 | 79 | 165 | 3.0 | 10.0 | 0.00 | 0.32 | 0.00 | 85 | 1018.1 |
| 20260903144622 | 79 | 165 | 3.0 | 10.0 | 0.00 | 0.32 | 0.00 | 85 | 1018.0 |
| 20260903144130 | 79 | 165 | 3.0 | 10.0 | 0.00 | 0.32 | 0.00 | 86 | 1017.8 |
| 20260903143619 | 78 | 165 | 3.0 | 8.0 | 0.00 | 0.32 | 0.00 | 87 | 1017.8 |
| 20260903143126 | 78 | 165 | 2.0 | 8.0 | 0.00 | 0.32 | 0.00 | 86 | 1017.6 |
| 20260903142615 | 78 | 165 | 1.0 | 8.0 | 0.00 | 0.32 | 0.00 | 87 | 1017.4 |
| 20260903142122 | 78 | 165 | 1.0 | 11.0 | 0.00 | 0.32 | 0.00 | 87 | 1017.6 |
| 20260903141632 | 78 | 315 | 6.0 | 11.0 | 0.00 | 0.32 | 0.00 | 87 | 1017.7 |
| 20260903141120 | 77 | 234 | 1.0 | 9.0 | 0.00 | 0.32 | 0.00 | 88 | 1017.9 |
| 20260903140629 | 77 | 165 | 4.0 | 9.0 | 0.00 | 0.32 | 0.00 | 88 | 1017.7 |
| 20260903140118 | 77 | 165 | 1.0 | 5.0 | 0.00 | 0.32 | 0.00 | 89 | 1017.7 |
| 20260903135622 | 77 | 165 | 2.0 | 6.0 | 0.00 | 0.32 | 0.00 | 89 | 1017.5 |
| 20260903135131 | 77 | 165 | 1.0 | 6.0 | 0.00 | 0.32 | 0.00 | 90 | 1017.5 |
| 20260903134621 | 76 | 165 | 1.0 | 5.0 | 0.00 | 0.32 | 0.00 | 92 | 1017.4 |
| 20260903134130 | 75 | 165 | 0.0 | 5.0 | 0.00 | 0.32 | 0.00 | 93 | 1017.5 |
| 20260903133639 | 75 | 165 | 2.0 | 5.0 | 0.00 | 0.32 | 0.00 | 93 | 1017.7 |
| 20260903133146 | 75 | 222 | 1.0 | 4.0 | 0.00 | 0.32 | 0.00 | 93 | 1017.5 |
| 20260903132613 | 74 | 178 | 0.0 | 3.0 | 0.00 | 0.32 | 0.00 | 94 | 1017.3 |
| 20260903132123 | 74 | 165 | 0.0 | 3.0 | 0.00 | 0.32 | 0.00 | 94 | 1017.2 |
| 20260903131631 | 74 | 122 | 1.0 | 3.0 | 0.00 | 0.32 | 0.00 | 93 | 1017.4 |
| 20260903131121 | 74 | 280 | 0.0 | 4.0 | 0.00 | 0.32 | 0.00 | 93 | 1018.1 |
| 20260903130650 | 74 | 299 | 0.0 | 6.0 | 0.00 | 0.32 | 0.00 | 94 | 1018.4 |
| 20260903130138 | 74 | 189 | 3.0 | 6.0 | 0.00 | 0.32 | 0.00 | 94 | 1018.0 |
| 20260903125625 | 74 | 262 | 1.0 | 4.0 | 0.00 | 0.32 | 0.00 | 94 | 1018.3 |
| 20260903125115 | 74 | 185 | 1.0 | 3.0 | 0.00 | 0.32 | 0.00 | 94 | 1018.5 |
| 20260903124623 | 74 | 174 | 1.0 | 3.0 | 0.00 | 0.32 | 0.00 | 94 | 1018.5 |
| 20260903124114 | 74 | 165 | 0.0 | 0.0 | 0.00 | 0.32 | 0.00 | 94 | 1018.7 |
| 20260903123619 | 74 | 165 | 0.0 | 3.0 | 0.00 | 0.32 | 0.00 | 94 | 1018.7 |
| 20260903123127 | 74 | 251 | 0.0 | 4.0 | 0.00 | 0.32 | 0.00 | 94 | 1018.4 |
| 20260903122616 | 74 | 228 | 1.0 | 6.0 | 0.00 | 0.32 | 0.00 | 95 | 1018.6 |
| 20260903122124 | 74 | 241 | 3.0 | 6.0 | 0.00 | 0.32 | 0.00 | 95 | 1018.7 |
| 20260903121633 | 74 | 234 | 2.0 | 3.0 | 0.00 | 0.32 | 0.00 | 95 | 1018.8 |
| 20260903121121 | 73 | 248 | 0.0 | 2.0 | 0.00 | 0.32 | 0.00 | 95 | 1018.9 |
| 20260903120629 | 73 | 199 | 0.0 | 2.0 | 0.00 | 0.32 | 0.00 | 95 | 1019.0 |
| 20260903120139 | 73 | 193 | 0.0 | 0.0 | 0.00 | 0.32 | 0.00 | 95 | 1019.0 |
| 20260903115626 | 73 | 192 | 0.0 | 0.0 | 0.00 | 0.32 | 0.00 | 95 | 1019.3 |
| 20260903115115 | 73 | 37 | 0.0 | 0.0 | 0.00 | 0.32 | 0.00 | 95 | 1019.2 |
| 20260903114624 | 73 | 201 | 0.0 | 0.0 | 0.00 | 0.32 | 0.00 | 95 | 1019.3 |
| 20260903114114 | 73 | 303 | 0.0 | 0.0 | 0.00 | 0.32 | 0.00 | 95 | 1019.6 |
| 20260903113624 | 73 | 302 | 0.0 | 0.0 | 0.00 | 0.32 | 0.00 | 95 | 1019.6 |
| 20260903113151 | 73 | 165 | 0.0 | 0.0 | 0.00 | 0.32 | 0.00 | 95 | 1019.7 |
| 20260903112620 | 73 | 25 | 0.0 | 0.0 | 0.00 | 0.32 | 0.00 | 95 | 1019.8 |
| 20260903112130 | 73 | 165 | 0.0 | 0.0 | 0.00 | 0.32 | 0.00 | 95 | 1019.9 |
| 20260903111617 | 73 | 25 | 0.0 | 0.0 | 0.00 | 0.32 | 0.00 | 95 | 1019.9 |
| 20260903111127 | 73 | 22 | 0.0 | 0.0 | 0.00 | 0.32 | 0.00 | 95 | 1019.8 |
| 20260903110615 | 73 | 20 | 0.0 | 2.0 | 0.00 | 0.32 | 0.00 | 95 | 1019.7 |
| 20260903110121 | 73 | 9 | 0.0 | 2.0 | 0.00 | 0.32 | 0.00 | 95 | 1019.5 |
| 20260903105630 | 73 | 37 | 0.0 | 0.0 | 0.00 | 0.32 | 0.00 | 95 | 1019.4 |
| 20260903105120 | 73 | 37 | 0.0 | 0.0 | 0.00 | 0.32 | 0.00 | 95 | 1018.9 |
| 20260903104648 | 73 | 93 | 0.0 | 0.0 | 0.00 | 0.32 | 0.00 | 95 | 1018.7 |
| 20260903104116 | 73 | 93 | 0.0 | 0.0 | 0.00 | 0.32 | 0.00 | 95 | 1018.7 |
| 20260903103645 | 73 | 93 | 0.0 | 0.0 | 0.00 | 0.32 | 0.00 | 95 | 1018.5 |
| 20260903103114 | 73 | 93 | 0.0 | 0.0 | 0.00 | 0.32 | 0.00 | 95 | 1018.6 |
| 20260903102625 | 73 | 93 | 0.0 | 0.0 | 0.00 | 0.32 | 0.00 | 95 | 1018.5 |
| 20260903102133 | 73 | 93 | 0.0 | 0.0 | 0.00 | 0.32 | 0.00 | 95 | 1018.4 |
| 20260903101622 | 73 | 165 | 0.0 | 0.0 | 0.00 | 0.32 | 0.00 | 95 | 1018.3 |
| 20260903101130 | 73 | 165 | 0.0 | 0.0 | 0.00 | 0.32 | 0.00 | 95 | 1018.3 |
| 20260903100620 | 73 | 93 | 0.0 | 0.0 | 0.00 | 0.32 | 0.00 | 95 | 1018.3 |
| 20260903100129 | 73 | 165 | 0.0 | 0.0 | 0.00 | 0.32 | 0.00 | 95 | 1018.3 |
| 20260903095617 | 73 | 93 | 0.0 | 0.0 | 0.00 | 0.32 | 0.00 | 95 | 1018.2 |
| 20260903095127 | 72 | 93 | 0.0 | 0.0 | 0.00 | 0.32 | 0.00 | 95 | 1018.4 |
| 20260903094616 | 72 | 93 | 0.0 | 0.0 | 0.00 | 0.32 | 0.00 | 95 | 1018.3 |
| 20260903094125 | 72 | 93 | 0.0 | 0.0 | 0.00 | 0.32 | 0.00 | 95 | 1018.1 |
| 20260903093614 | 72 | 30 | 0.0 | 0.0 | 0.00 | 0.32 | 0.00 | 95 | 1018.4 |
| 20260903093139 | 72 | 35 | 0.0 | 0.0 | 0.00 | 0.32 | 0.00 | 94 | 1018.4 |
| 20260903092628 | 72 | 214 | 0.0 | 0.0 | 0.00 | 0.32 | 0.00 | 94 | 1017.7 |
| 20260903092115 | 72 | 195 | 0.0 | 0.0 | 0.00 | 0.32 | 0.00 | 94 | 1017.6 |
| 20260903091624 | 72 | 193 | 0.0 | 0.0 | 0.00 | 0.32 | 0.00 | 94 | 1017.6 |
| 20260903091153 | 72 | 143 | 0.0 | 0.0 | 0.00 | 0.32 | 0.00 | 94 | 1017.8 |
| 20260903090641 | 72 | 146 | 0.0 | 0.0 | 0.00 | 0.32 | 0.00 | 94 | 1017.7 |
| 20260903090129 | 73 | 146 | 0.0 | 0.0 | 0.00 | 0.32 | 0.00 | 94 | 1017.7 |
| 20260903085619 | 73 | 126 | 0.0 | 0.0 | 0.00 | 0.32 | 0.00 | 94 | 1017.8 |
| 20260903085127 | 73 | 165 | 0.0 | 0.0 | 0.00 | 0.32 | 0.00 | 94 | 1017.8 |
| 20260903084637 | 72 | 54 | 0.0 | 0.0 | 0.00 | 0.32 | 0.00 | 94 | 1017.9 |
| 20260903084144 | 73 | 54 | 0.0 | 0.0 | 0.00 | 0.32 | 0.00 | 94 | 1017.8 |
| 20260903083653 | 73 | 54 | 0.0 | 0.0 | 0.00 | 0.32 | 0.00 | 94 | 1017.7 |
| 20260903083121 | 73 | 54 | 0.0 | 0.0 | 0.00 | 0.32 | 0.00 | 94 | 1017.8 |
| 20260903082646 | 72 | 54 | 0.0 | 0.0 | 0.00 | 0.32 | 0.00 | 94 | 1017.8 |
| 20260903082115 | 72 | 55 | 0.0 | 0.0 | 0.00 | 0.32 | 0.00 | 94 | 1017.7 |
| 20260903081623 | 72 | 54 | 0.0 | 0.0 | 0.00 | 0.32 | 0.00 | 94 | 1017.8 |
| 20260903081152 | 72 | 55 | 0.0 | 0.0 | 0.00 | 0.32 | 0.00 | 94 | 1017.7 |
| 20260903080620 | 72 | 55 | 0.0 | 0.0 | 0.00 | 0.32 | 0.00 | 94 | 1017.9 |
| 20260903080129 | 72 | 46 | 0.0 | 0.0 | 0.00 | 0.32 | 0.00 | 94 | 1018.0 |
| 20260903075617 | 72 | 46 | 0.0 | 0.0 | 0.00 | 0.32 | 0.00 | 94 | 1018.0 |
| 20260903075125 | 72 | 46 | 0.0 | 0.0 | 0.00 | 0.32 | 0.00 | 94 | 1018.0 |
| 20260903074614 | 72 | 111 | 0.0 | 0.0 | 0.00 | 0.32 | 0.00 | 94 | 1017.7 |
| 20260903074123 | 72 | 189 | 0.0 | 0.0 | 0.00 | 0.32 | 0.00 | 94 | 1017.7 |
| 20260903073633 | 72 | 193 | 0.0 | 0.0 | 0.00 | 0.32 | 0.00 | 94 | 1017.9 |
| 20260903073121 | 72 | 80 | 0.0 | 0.0 | 0.00 | 0.32 | 0.00 | 94 | 1017.8 |
| 20260903072629 | 72 | 80 | 0.0 | 0.0 | 0.00 | 0.32 | 0.00 | 94 | 1017.9 |
| 20260903072139 | 72 | 80 | 0.0 | 0.0 | 0.00 | 0.32 | 0.00 | 94 | 1017.8 |
| 20260903071116 | 72 | 102 | 0.0 | 0.0 | 0.00 | 0.32 | 0.00 | 94 | 1017.7 |
| 20260903070624 | 72 | 103 | 0.0 | 0.0 | 0.00 | 0.32 | 0.00 | 94 | 1017.5 |
| 20260903070114 | 72 | 103 | 0.0 | 0.0 | 0.00 | 0.32 | 0.00 | 94 | 1017.6 |
| 20260903065623 | 72 | 153 | 0.0 | 0.0 | 0.00 | 0.32 | 0.00 | 94 | 1017.5 |
| 20260903065132 | 72 | 207 | 0.0 | 2.0 | 0.00 | 0.32 | 0.00 | 94 | 1017.5 |
| 20260903064636 | 72 | 218 | 0.0 | 2.0 | 0.00 | 0.32 | 0.00 | 94 | 1017.4 |
| 20260903064123 | 72 | 195 | 0.0 | 0.0 | 0.00 | 0.32 | 0.00 | 94 | 1017.4 |
| 20260903063631 | 72 | 205 | 0.0 | 0.0 | 0.00 | 0.32 | 0.00 | 94 | 1017.4 |
| 20260903063120 | 72 | 178 | 0.0 | 1.0 | 0.00 | 0.32 | 0.00 | 94 | 1017.4 |
| 20260903062630 | 72 | 328 | 0.0 | 1.0 | 0.00 | 0.32 | 0.00 | 94 | 1017.3 |
| 20260903062119 | 71 | 184 | 0.0 | 0.0 | 0.00 | 0.32 | 0.00 | 94 | 1017.4 |
| 20260903061629 | 71 | 195 | 0.0 | 0.0 | 0.00 | 0.32 | 0.00 | 93 | 1017.4 |
| 20260903061119 | 71 | 248 | 0.0 | 0.0 | 0.00 | 0.32 | 0.00 | 93 | 1017.5 |
| 20260903060626 | 71 | 248 | 0.0 | 0.0 | 0.00 | 0.32 | 0.00 | 93 | 1017.6 |
| 20260903060115 | 71 | 248 | 0.0 | 0.0 | 0.00 | 0.32 | 0.00 | 93 | 1017.5 |
| 20260903055625 | 71 | 248 | 0.0 | 0.0 | 0.00 | 0.32 | 0.00 | 93 | 1017.3 |
| 20260903055153 | 71 | 248 | 0.0 | 0.0 | 0.00 | 0.32 | 0.00 | 93 | 1017.3 |
| 20260903054641 | 71 | 248 | 0.0 | 0.0 | 0.00 | 0.32 | 0.00 | 93 | 1017.6 |
| 20260903054130 | 71 | 192 | 0.0 | 0.0 | 0.00 | 0.32 | 0.00 | 94 | 1017.7 |
| 20260903053620 | 71 | 183 | 0.0 | 0.0 | 0.00 | 0.32 | 0.00 | 94 | 1017.6 |
| 20260903053128 | 71 | 183 | 0.0 | 2.0 | 0.00 | 0.32 | 0.00 | 94 | 1017.7 |
| 20260903052617 | 71 | 183 | 0.0 | 2.0 | 0.00 | 0.32 | 0.00 | 94 | 1017.9 |
| 20260903052126 | 71 | 315 | 0.0 | 0.0 | 0.00 | 0.32 | 0.00 | 94 | 1017.9 |
| 20260903051614 | 71 | 315 | 0.0 | 0.0 | 0.00 | 0.32 | 0.00 | 93 | 1018.1 |
| 20260903051120 | 71 | 51 | 0.0 | 0.0 | 0.00 | 0.32 | 0.00 | 93 | 1018.0 |
| 20260903050629 | 71 | 170 | 0.0 | 0.0 | 0.00 | 0.32 | 0.00 | 93 | 1018.0 |
| 20260903050119 | 71 | 170 | 0.0 | 0.0 | 0.00 | 0.32 | 0.00 | 92 | 1017.9 |
| 20260903045628 | 71 | 170 | 0.0 | 0.0 | 0.00 | 0.32 | 0.00 | 93 | 1017.7 |
| 20260903045117 | 71 | 170 | 0.0 | 0.0 | 0.00 | 0.32 | 0.00 | 94 | 1017.9 |
| 20260903044627 | 71 | 170 | 0.0 | 0.0 | 0.00 | 0.32 | 0.00 | 94 | 1017.9 |
| 20260903044114 | 71 | 170 | 0.0 | 0.0 | 0.00 | 0.32 | 0.00 | 94 | 1018.1 |
| 20260903043644 | 71 | 170 | 0.0 | 0.0 | 0.00 | 0.32 | 0.00 | 94 | 1018.1 |
| 20260903043131 | 71 | 170 | 0.0 | 0.0 | 0.00 | 0.32 | 0.00 | 94 | 1018.3 |
| 20260903042621 | 71 | 170 | 0.0 | 0.0 | 0.00 | 0.32 | 0.00 | 94 | 1018.2 |
| 20260903042129 | 71 | 170 | 0.0 | 0.0 | 0.00 | 0.32 | 0.00 | 94 | 1018.1 |
| 20260903041619 | 71 | 170 | 0.0 | 0.0 | 0.00 | 0.32 | 0.00 | 94 | 1018.1 |
| 20260903041127 | 71 | 170 | 0.0 | 0.0 | 0.00 | 0.32 | 0.00 | 93 | 1018.3 |
| 20260903040616 | 71 | 170 | 0.0 | 0.0 | 0.00 | 0.32 | 0.00 | 93 | 1018.7 |
| 20260903040124 | 71 | 170 | 0.0 | 0.0 | 0.00 | 0.32 | 0.00 | 93 | 1018.8 |
| 20260903035633 | 72 | 170 | 0.0 | 0.0 | 0.00 | 0.32 | 0.32 | 93 | 1018.8 |
| 20260903035123 | 71 | 170 | 0.0 | 0.0 | 0.00 | 0.32 | 0.32 | 93 | 1019.1 |
| 20260903034630 | 71 | 170 | 0.0 | 0.0 | 0.00 | 0.32 | 0.32 | 93 | 1019.0 |
| 20260903034140 | 72 | 170 | 0.0 | 0.0 | 0.00 | 0.32 | 0.32 | 93 | 1018.9 |
| 20260903033645 | 72 | 170 | 0.0 | 0.0 | 0.00 | 0.32 | 0.32 | 93 | 1018.9 |
| 20260903033131 | 72 | 170 | 0.0 | 0.0 | 0.00 | 0.32 | 0.32 | 93 | 1019.0 |
| 20260903032641 | 72 | 170 | 0.0 | 0.0 | 0.00 | 0.32 | 0.32 | 94 | 1018.9 |
| 20260903032130 | 71 | 170 | 0.0 | 0.0 | 0.00 | 0.32 | 0.32 | 93 | 1018.9 |
| 20260903031618 | 71 | 170 | 0.0 | 0.0 | 0.00 | 0.32 | 0.32 | 93 | 1018.7 |
| 20260903031127 | 71 | 170 | 0.0 | 0.0 | 0.00 | 0.32 | 0.32 | 93 | 1018.5 |
| 20260903030614 | 71 | 170 | 0.0 | 0.0 | 0.00 | 0.32 | 0.32 | 93 | 1018.5 |
| 20260903030144 | 72 | 170 | 0.0 | 0.0 | 0.00 | 0.32 | 0.32 | 93 | 1018.6 |
| 20260903025652 | 72 | 209 | 0.0 | 0.0 | 0.00 | 0.32 | 0.32 | 93 | 1018.5 |
| 20260903025120 | 72 | 197 | 0.0 | 0.0 | 0.00 | 0.32 | 0.32 | 93 | 1018.5 |
| 20260903024629 | 72 | 62 | 0.0 | 0.0 | 0.00 | 0.32 | 0.32 | 94 | 1018.5 |
| 20260903024118 | 71 | 62 | 0.0 | 0.0 | 0.00 | 0.32 | 0.32 | 93 | 1018.5 |
| 20260903023626 | 72 | 62 | 0.0 | 0.0 | 0.00 | 0.32 | 0.32 | 94 | 1018.6 |
| 20260903023115 | 72 | 62 | 0.0 | 0.0 | 0.00 | 0.32 | 0.32 | 93 | 1018.7 |
| 20260903022625 | 72 | 62 | 0.0 | 0.0 | 0.00 | 0.32 | 0.32 | 93 | 1018.7 |
| 20260903022150 | 72 | 62 | 0.0 | 0.0 | 0.00 | 0.32 | 0.32 | 94 | 1018.7 |
| 20260903021617 | 72 | 62 | 0.0 | 0.0 | 0.00 | 0.32 | 0.32 | 94 | 1018.7 |
| 20260903021127 | 72 | 62 | 0.0 | 0.0 | 0.00 | 0.32 | 0.32 | 93 | 1018.8 |
| 20260903020615 | 72 | 62 | 0.0 | 0.0 | 0.00 | 0.32 | 0.32 | 94 | 1018.9 |
| 20260903020125 | 72 | 62 | 0.0 | 0.0 | 0.00 | 0.32 | 0.32 | 94 | 1018.7 |
| 20260903015615 | 71 | 62 | 0.0 | 0.0 | 0.00 | 0.32 | 0.32 | 93 | 1018.8 |
| 20260903015124 | 71 | 62 | 0.0 | 0.0 | 0.00 | 0.32 | 0.32 | 93 | 1018.9 |
| 20260903014633 | 71 | 62 | 0.0 | 0.0 | 0.00 | 0.32 | 0.32 | 93 | 1018.6 |
| 20260903014141 | 72 | 62 | 0.0 | 0.0 | 0.00 | 0.32 | 0.32 | 93 | 1018.5 |
| 20260903013630 | 72 | 62 | 0.0 | 0.0 | 0.00 | 0.32 | 0.32 | 93 | 1018.6 |
| 20260903013118 | 72 | 62 | 0.0 | 0.0 | 0.00 | 0.32 | 0.32 | 93 | 1018.7 |
| 20260903012628 | 72 | 62 | 0.0 | 0.0 | 0.00 | 0.32 | 0.32 | 93 | 1019.0 |
| 20260903012116 | 72 | 62 | 0.0 | 0.0 | 0.00 | 0.32 | 0.32 | 93 | 1018.8 |
| 20260903011625 | 72 | 62 | 0.0 | 0.0 | 0.00 | 0.32 | 0.32 | 92 | 1018.7 |
| 20260903011113 | 72 | 62 | 0.0 | 0.0 | 0.00 | 0.32 | 0.32 | 92 | 1018.5 |
| 20260903010623 | 72 | 136 | 0.0 | 0.0 | 0.00 | 0.32 | 0.32 | 92 | 1018.2 |
| 20260903010132 | 72 | 136 | 0.0 | 0.0 | 0.00 | 0.32 | 0.32 | 92 | 1018.3 |
| 20260903005621 | 72 | 136 | 0.0 | 0.0 | 0.00 | 0.32 | 0.32 | 92 | 1018.1 |
| 20260903005129 | 72 | 136 | 0.0 | 0.0 | 0.00 | 0.32 | 0.32 | 92 | 1018.0 |
| 20260903004619 | 73 | 136 | 0.0 | 0.0 | 0.00 | 0.32 | 0.32 | 92 | 1018.0 |
| 20260903004124 | 73 | 136 | 0.0 | 0.0 | 0.00 | 0.32 | 0.32 | 93 | 1018.0 |
| 20260903003633 | 72 | 136 | 0.0 | 0.0 | 0.00 | 0.32 | 0.32 | 93 | 1018.1 |
| 20260903003121 | 72 | 136 | 0.0 | 0.0 | 0.00 | 0.32 | 0.32 | 93 | 1018.4 |
| 20260903002630 | 72 | 136 | 0.0 | 0.0 | 0.00 | 0.32 | 0.32 | 93 | 1018.6 |
| 20260903002119 | 72 | 136 | 0.0 | 0.0 | 0.00 | 0.32 | 0.32 | 92 | 1018.3 |
| 20260903001628 | 73 | 136 | 0.0 | 0.0 | 0.00 | 0.32 | 0.32 | 92 | 1018.3 |
| 20260903001117 | 73 | 136 | 0.0 | 0.0 | 0.00 | 0.32 | 0.32 | 92 | 1018.5 |
| 20260903000645 | 73 | 136 | 0.0 | 0.0 | 0.00 | 0.32 | 0.32 | 92 | 1018.3 |
| 20260903000113 | 73 | 136 | 0.0 | 0.0 | 0.00 | 0.32 | 0.32 | 92 | 1018.3 |
| 20260902235642 | 73 | 136 | 0.0 | 0.0 | 0.00 | 0.32 | 0.32 | 91 | 1018.5 |
| 20260902235130 | 73 | 136 | 0.0 | 0.0 | 0.00 | 0.32 | 0.32 | 92 | 1018.5 |
| 20260902234618 | 73 | 136 | 0.0 | 0.0 | 0.00 | 0.32 | 0.32 | 92 | 1018.5 |
| 20260902234128 | 73 | 136 | 0.0 | 0.0 | 0.00 | 0.32 | 0.32 | 91 | 1018.5 |
| 20260902233636 | 73 | 136 | 0.0 | 0.0 | 0.00 | 0.32 | 0.32 | 91 | 1018.5 |
| 20260902233124 | 73 | 165 | 0.0 | 0.0 | 0.00 | 0.32 | 0.32 | 91 | 1018.6 |
| 20260902232633 | 73 | 165 | 0.0 | 0.0 | 0.00 | 0.32 | 0.32 | 91 | 1018.6 |
| 20260902232121 | 73 | 165 | 0.0 | 0.0 | 0.00 | 0.32 | 0.32 | 90 | 1018.5 |
| 20260902231627 | 73 | 165 | 0.0 | 0.0 | 0.00 | 0.32 | 0.32 | 90 | 1018.4 |
| 20260902231117 | 73 | 136 | 0.0 | 0.0 | 0.00 | 0.32 | 0.32 | 89 | 1018.4 |
| 20260902230627 | 74 | 136 | 0.0 | 0.0 | 0.00 | 0.32 | 0.32 | 88 | 1018.5 |
| 20260902230116 | 74 | 136 | 0.0 | 0.0 | 0.00 | 0.32 | 0.32 | 87 | 1018.6 |
| 20260902225625 | 74 | 136 | 0.0 | 3.0 | 0.00 | 0.32 | 0.32 | 86 | 1018.6 |
| 20260902225135 | 75 | 251 | 0.0 | 3.0 | 0.00 | 0.32 | 0.32 | 84 | 1018.7 |
| 20260902224623 | 76 | 165 | 1.0 | 3.0 | 0.00 | 0.32 | 0.32 | 83 | 1018.7 |
| 20260902224132 | 76 | 299 | 0.0 | 3.0 | 0.00 | 0.32 | 0.32 | 84 | 1018.6 |
| 20260902223622 | 76 | 295 | 1.0 | 3.0 | 0.00 | 0.32 | 0.32 | 84 | 1018.4 |
| 20260902223129 | 76 | 165 | 0.0 | 3.0 | 0.00 | 0.32 | 0.32 | 84 | 1018.4 |
| 20260902222618 | 76 | 165 | 0.0 | 3.0 | 0.00 | 0.32 | 0.32 | 84 | 1018.4 |
| 20260902222127 | 76 | 165 | 1.0 | 3.0 | 0.00 | 0.32 | 0.32 | 84 | 1018.4 |
| 20260902221616 | 76 | 165 | 0.0 | 3.0 | 0.00 | 0.32 | 0.32 | 84 | 1018.5 |
| 20260902221124 | 76 | 165 | 0.0 | 4.0 | 0.00 | 0.32 | 0.32 | 84 | 1018.5 |
| 20260902220632 | 77 | 165 | 0.0 | 4.0 | 0.00 | 0.32 | 0.32 | 84 | 1018.6 |
| 20260902220122 | 77 | 165 | 0.0 | 3.0 | 0.00 | 0.32 | 0.32 | 84 | 1018.6 |
| 20260902215631 | 77 | 165 | 0.0 | 0.0 | 0.00 | 0.32 | 0.32 | 85 | 1018.7 |
| 20260902215120 | 77 | 165 | 0.0 | 0.0 | 0.00 | 0.32 | 0.32 | 85 | 1018.7 |
| 20260902214628 | 77 | 165 | 0.0 | 0.0 | 0.00 | 0.32 | 0.32 | 85 | 1018.9 |
| 20260902214153 | 76 | 282 | 0.0 | 0.0 | 0.00 | 0.32 | 0.32 | 86 | 1019.1 |
| 20260902213621 | 76 | 294 | 0.0 | 0.0 | 0.00 | 0.32 | 0.32 | 87 | 1019.1 |
| 20260902213130 | 75 | 165 | 0.0 | 0.0 | 0.00 | 0.32 | 0.32 | 86 | 1019.3 |
| 20260902212617 | 76 | 224 | 0.0 | 2.0 | 0.00 | 0.32 | 0.32 | 87 | 1019.2 |
| 20260902212125 | 75 | 165 | 0.0 | 2.0 | 0.00 | 0.32 | 0.32 | 88 | 1019.1 |
| 20260902211615 | 75 | 248 | 0.0 | 1.0 | 0.00 | 0.32 | 0.32 | 89 | 1019.2 |
| 20260902211143 | 74 | 303 | 0.0 | 0.0 | 0.00 | 0.32 | 0.32 | 90 | 1019.3 |
| 20260902210631 | 74 | 323 | 0.0 | 0.0 | 0.00 | 0.32 | 0.32 | 90 | 1019.2 |
| 20260902210120 | 74 | 323 | 0.0 | 0.0 | 0.00 | 0.32 | 0.32 | 90 | 1019.1 |